sensor_id;sensor_type;location;lat;lon;timestamp;P1;durP1;ratioP1;P2;durP2;ratioP2
79570;SDS011;69034;49.444;7.758;2023-04-15T00:00:59;3.95;;;1.52;;
79570;SDS011;69034;49.444;7.758;2023-04-15T00:04:59;5.67;;;1.50;;
79570;SDS011;69034;49.444;7.758;2023-04-15T00:08:59;8.30;;;2.30;;
79570;SDS011;69034;49.444;7.758;2023-04-15T00:13:00;5.28;;;1.88;;
79570;SDS011;69034;49.444;7.758;2023-04-15T00:17:01;6.72;;;1.60;;
79570;SDS011;69034;49.444;7.758;2023-04-15T00:21:02;5.63;;;1.75;;
79570;SDS011;69034;49.444;7.758;2023-04-15T00:25:03;3.88;;;1.48;;
79570;SDS011;69034;49.444;7.758;2023-04-15T00:29:03;4.95;;;1.77;;
79570;SDS011;69034;49.444;7.758;2023-04-15T00:33:04;10.23;;;2.00;;
79570;SDS011;69034;49.444;7.758;2023-04-15T00:37:04;3.80;;;1.50;;
79570;SDS011;69034;49.444;7.758;2023-04-15T00:41:04;4.85;;;1.73;;
79570;SDS011;69034;49.444;7.758;2023-04-15T00:45:04;3.70;;;1.33;;
79570;SDS011;69034;49.444;7.758;2023-04-15T00:49:06;5.35;;;1.52;;
79570;SDS011;69034;49.444;7.758;2023-04-15T00:53:06;6.20;;;1.40;;
79570;SDS011;69034;49.444;7.758;2023-04-15T00:57:09;4.68;;;1.30;;
79570;SDS011;69034;49.444;7.758;2023-04-15T01:01:10;6.13;;;1.50;;
79570;SDS011;69034;49.444;7.758;2023-04-15T01:05:10;4.60;;;1.50;;
79570;SDS011;69034;49.444;7.758;2023-04-15T01:09:10;5.05;;;1.30;;
79570;SDS011;69034;49.444;7.758;2023-04-15T01:13:10;6.83;;;2.03;;
79570;SDS011;69034;49.444;7.758;2023-04-15T01:17:11;4.07;;;1.40;;
79570;SDS011;69034;49.444;7.758;2023-04-15T01:21:12;3.75;;;1.60;;
79570;SDS011;69034;49.444;7.758;2023-04-15T01:25:14;4.65;;;1.35;;
79570;SDS011;69034;49.444;7.758;2023-04-15T01:29:16;4.45;;;1.20;;
79570;SDS011;69034;49.444;7.758;2023-04-15T01:33:17;3.67;;;1.30;;
79570;SDS011;69034;49.444;7.758;2023-04-15T01:37:17;5.15;;;1.40;;
79570;SDS011;69034;49.444;7.758;2023-04-15T01:41:20;6.23;;;1.50;;
79570;SDS011;69034;49.444;7.758;2023-04-15T01:45:22;3.90;;;1.13;;
79570;SDS011;69034;49.444;7.758;2023-04-15T01:49:23;4.43;;;1.70;;
79570;SDS011;69034;49.444;7.758;2023-04-15T01:53:23;4.07;;;1.38;;
79570;SDS011;69034;49.444;7.758;2023-04-15T01:57:24;3.10;;;1.20;;
79570;SDS011;69034;49.444;7.758;2023-04-15T02:01:24;4.85;;;1.77;;
79570;SDS011;69034;49.444;7.758;2023-04-15T02:05:24;7.87;;;1.50;;
79570;SDS011;69034;49.444;7.758;2023-04-15T02:09:25;3.73;;;1.40;;
79570;SDS011;69034;49.444;7.758;2023-04-15T02:13:25;3.72;;;1.30;;
79570;SDS011;69034;49.444;7.758;2023-04-15T02:17:26;4.80;;;1.58;;
79570;SDS011;69034;49.444;7.758;2023-04-15T02:21:26;5.43;;;1.53;;
79570;SDS011;69034;49.444;7.758;2023-04-15T02:25:26;5.45;;;1.30;;
79570;SDS011;69034;49.444;7.758;2023-04-15T02:29:26;5.65;;;1.70;;
79570;SDS011;69034;49.444;7.758;2023-04-15T02:33:27;3.03;;;1.00;;
79570;SDS011;69034;49.444;7.758;2023-04-15T02:37:27;4.20;;;1.60;;
79570;SDS011;69034;49.444;7.758;2023-04-15T02:41:29;6.88;;;2.10;;
79570;SDS011;69034;49.444;7.758;2023-04-15T02:45:29;3.20;;;1.35;;
79570;SDS011;69034;49.444;7.758;2023-04-15T02:49:29;4.38;;;1.38;;
79570;SDS011;69034;49.444;7.758;2023-04-15T02:53:30;6.95;;;1.45;;
79570;SDS011;69034;49.444;7.758;2023-04-15T02:57:30;4.00;;;1.40;;
79570;SDS011;69034;49.444;7.758;2023-04-15T03:01:30;5.73;;;1.60;;
79570;SDS011;69034;49.444;7.758;2023-04-15T03:05:30;6.03;;;1.50;;
79570;SDS011;69034;49.444;7.758;2023-04-15T03:09:31;6.87;;;1.60;;
79570;SDS011;69034;49.444;7.758;2023-04-15T03:13:32;9.20;;;1.70;;
79570;SDS011;69034;49.444;7.758;2023-04-15T03:17:32;5.07;;;1.52;;
79570;SDS011;69034;49.444;7.758;2023-04-15T03:21:32;3.57;;;1.10;;
79570;SDS011;69034;49.444;7.758;2023-04-15T03:25:32;5.90;;;1.42;;
79570;SDS011;69034;49.444;7.758;2023-04-15T03:29:32;3.30;;;1.23;;
79570;SDS011;69034;49.444;7.758;2023-04-15T03:33:33;4.47;;;1.40;;
79570;SDS011;69034;49.444;7.758;2023-04-15T03:37:33;5.20;;;1.38;;
79570;SDS011;69034;49.444;7.758;2023-04-15T03:41:33;4.63;;;1.48;;
79570;SDS011;69034;49.444;7.758;2023-04-15T03:45:34;4.35;;;1.40;;
79570;SDS011;69034;49.444;7.758;2023-04-15T03:49:35;3.67;;;1.30;;
79570;SDS011;69034;49.444;7.758;2023-04-15T03:53:35;4.40;;;1.30;;
79570;SDS011;69034;49.444;7.758;2023-04-15T03:57:35;3.87;;;1.30;;
79570;SDS011;69034;49.444;7.758;2023-04-15T04:01:38;6.53;;;1.50;;
79570;SDS011;69034;49.444;7.758;2023-04-15T04:05:38;4.47;;;1.70;;
79570;SDS011;69034;49.444;7.758;2023-04-15T04:09:40;7.32;;;1.63;;
79570;SDS011;69034;49.444;7.758;2023-04-15T04:13:41;4.88;;;1.50;;
79570;SDS011;69034;49.444;7.758;2023-04-15T04:17:41;4.53;;;1.20;;
79570;SDS011;69034;49.444;7.758;2023-04-15T04:21:41;5.97;;;1.27;;
79570;SDS011;69034;49.444;7.758;2023-04-15T04:25:41;5.25;;;1.60;;
79570;SDS011;69034;49.444;7.758;2023-04-15T04:29:42;3.97;;;1.20;;
79570;SDS011;69034;49.444;7.758;2023-04-15T04:33:42;2.78;;;1.13;;
79570;SDS011;69034;49.444;7.758;2023-04-15T04:37:43;3.28;;;1.27;;
79570;SDS011;69034;49.444;7.758;2023-04-15T04:41:43;4.15;;;1.42;;
79570;SDS011;69034;49.444;7.758;2023-04-15T04:45:43;6.18;;;1.33;;
79570;SDS011;69034;49.444;7.758;2023-04-15T04:49:44;4.55;;;1.08;;
79570;SDS011;69034;49.444;7.758;2023-04-15T04:53:44;5.00;;;1.40;;
79570;SDS011;69034;49.444;7.758;2023-04-15T04:57:44;6.83;;;1.33;;
79570;SDS011;69034;49.444;7.758;2023-04-15T05:01:45;4.90;;;1.50;;
79570;SDS011;69034;49.444;7.758;2023-04-15T05:05:45;2.72;;;1.02;;
79570;SDS011;69034;49.444;7.758;2023-04-15T05:09:45;5.33;;;1.37;;
79570;SDS011;69034;49.444;7.758;2023-04-15T05:13:48;7.13;;;1.60;;
79570;SDS011;69034;49.444;7.758;2023-04-15T05:17:48;3.70;;;1.15;;
79570;SDS011;69034;49.444;7.758;2023-04-15T05:21:49;5.10;;;1.70;;
79570;SDS011;69034;49.444;7.758;2023-04-15T05:25:49;5.43;;;1.50;;
79570;SDS011;69034;49.444;7.758;2023-04-15T05:29:49;3.40;;;1.30;;
79570;SDS011;69034;49.444;7.758;2023-04-15T05:33:49;4.80;;;1.40;;
79570;SDS011;69034;49.444;7.758;2023-04-15T05:37:50;5.15;;;1.23;;
79570;SDS011;69034;49.444;7.758;2023-04-15T05:41:50;6.10;;;1.50;;
79570;SDS011;69034;49.444;7.758;2023-04-15T05:45:51;3.78;;;1.48;;
79570;SDS011;69034;49.444;7.758;2023-04-15T05:49:51;5.53;;;1.10;;
79570;SDS011;69034;49.444;7.758;2023-04-15T05:53:51;4.38;;;1.45;;
79570;SDS011;69034;49.444;7.758;2023-04-15T05:57:51;5.45;;;1.40;;
79570;SDS011;69034;49.444;7.758;2023-04-15T06:01:52;3.97;;;2.00;;
79570;SDS011;69034;49.444;7.758;2023-04-15T06:05:52;4.05;;;1.52;;
79570;SDS011;69034;49.444;7.758;2023-04-15T06:09:53;6.97;;;1.58;;
79570;SDS011;69034;49.444;7.758;2023-04-15T06:13:53;3.20;;;1.27;;
79570;SDS011;69034;49.444;7.758;2023-04-15T06:17:53;4.13;;;1.53;;
79570;SDS011;69034;49.444;7.758;2023-04-15T06:21:54;4.22;;;1.50;;
79570;SDS011;69034;49.444;7.758;2023-04-15T06:25:54;3.47;;;1.37;;
79570;SDS011;69034;49.444;7.758;2023-04-15T06:29:54;4.83;;;1.60;;
79570;SDS011;69034;49.444;7.758;2023-04-15T06:33:54;3.47;;;1.20;;
79570;SDS011;69034;49.444;7.758;2023-04-15T06:37:55;5.68;;;1.00;;
79570;SDS011;69034;49.444;7.758;2023-04-15T06:41:55;3.22;;;1.20;;
79570;SDS011;69034;49.444;7.758;2023-04-15T06:45:55;5.00;;;1.53;;
79570;SDS011;69034;49.444;7.758;2023-04-15T06:49:56;5.83;;;1.57;;
79570;SDS011;69034;49.444;7.758;2023-04-15T06:53:56;5.75;;;1.50;;
79570;SDS011;69034;49.444;7.758;2023-04-15T06:57:56;3.33;;;1.13;;
79570;SDS011;69034;49.444;7.758;2023-04-15T07:01:57;4.68;;;1.40;;
79570;SDS011;69034;49.444;7.758;2023-04-15T07:05:57;5.07;;;1.40;;
79570;SDS011;69034;49.444;7.758;2023-04-15T07:09:57;4.00;;;1.33;;
79570;SDS011;69034;49.444;7.758;2023-04-15T07:13:58;4.50;;;1.50;;
79570;SDS011;69034;49.444;7.758;2023-04-15T07:17:58;5.88;;;2.03;;
79570;SDS011;69034;49.444;7.758;2023-04-15T07:21:58;7.32;;;1.95;;
79570;SDS011;69034;49.444;7.758;2023-04-15T07:25:58;4.80;;;1.88;;
79570;SDS011;69034;49.444;7.758;2023-04-15T07:29:59;8.40;;;3.85;;
79570;SDS011;69034;49.444;7.758;2023-04-15T07:33:59;6.35;;;1.60;;
79570;SDS011;69034;49.444;7.758;2023-04-15T07:37:59;5.60;;;1.80;;
79570;SDS011;69034;49.444;7.758;2023-04-15T07:41:59;8.00;;;1.80;;
79570;SDS011;69034;49.444;7.758;2023-04-15T07:46:00;5.27;;;1.80;;
79570;SDS011;69034;49.444;7.758;2023-04-15T07:50:00;6.27;;;1.60;;
79570;SDS011;69034;49.444;7.758;2023-04-15T07:54:01;5.72;;;1.67;;
79570;SDS011;69034;49.444;7.758;2023-04-15T07:58:02;5.78;;;1.90;;
79570;SDS011;69034;49.444;7.758;2023-04-15T08:02:02;8.32;;;1.65;;
79570;SDS011;69034;49.444;7.758;2023-04-15T08:06:03;4.45;;;1.55;;
79570;SDS011;69034;49.444;7.758;2023-04-15T08:10:03;8.60;;;2.00;;
79570;SDS011;69034;49.444;7.758;2023-04-15T08:14:03;6.13;;;1.60;;
79570;SDS011;69034;49.444;7.758;2023-04-15T08:18:04;5.83;;;1.80;;
79570;SDS011;69034;49.444;7.758;2023-04-15T08:22:07;7.43;;;1.98;;
79570;SDS011;69034;49.444;7.758;2023-04-15T08:26:07;4.15;;;1.80;;
79570;SDS011;69034;49.444;7.758;2023-04-15T08:30:08;7.33;;;1.90;;
79570;SDS011;69034;49.444;7.758;2023-04-15T08:34:08;6.57;;;1.80;;
79570;SDS011;69034;49.444;7.758;2023-04-15T08:38:09;4.35;;;1.50;;
79570;SDS011;69034;49.444;7.758;2023-04-15T08:42:10;9.20;;;2.17;;
79570;SDS011;69034;49.444;7.758;2023-04-15T08:46:11;5.90;;;1.90;;
79570;SDS011;69034;49.444;7.758;2023-04-15T08:50:12;5.28;;;1.70;;
79570;SDS011;69034;49.444;7.758;2023-04-15T08:54:13;4.55;;;1.60;;
79570;SDS011;69034;49.444;7.758;2023-04-15T08:58:14;4.43;;;1.70;;
79570;SDS011;69034;49.444;7.758;2023-04-15T09:02:15;5.32;;;1.80;;
79570;SDS011;69034;49.444;7.758;2023-04-15T09:06:16;6.40;;;2.40;;
79570;SDS011;69034;49.444;7.758;2023-04-15T09:10:16;8.05;;;2.70;;
79570;SDS011;69034;49.444;7.758;2023-04-15T09:14:16;3.70;;;1.60;;
79570;SDS011;69034;49.444;7.758;2023-04-15T09:18:27;4.33;;;1.70;;
79570;SDS011;69034;49.444;7.758;2023-04-15T09:22:31;5.30;;;1.52;;
79570;SDS011;69034;49.444;7.758;2023-04-15T09:26:36;3.72;;;1.17;;
79570;SDS011;69034;49.444;7.758;2023-04-15T09:30:36;4.28;;;1.38;;
79570;SDS011;69034;49.444;7.758;2023-04-15T09:34:36;3.20;;;1.23;;
79570;SDS011;69034;49.444;7.758;2023-04-15T09:38:43;6.15;;;1.40;;
79570;SDS011;69034;49.444;7.758;2023-04-15T09:42:53;3.78;;;1.30;;
79570;SDS011;69034;49.444;7.758;2023-04-15T09:46:55;6.30;;;1.80;;
79570;SDS011;69034;49.444;7.758;2023-04-15T09:50:56;6.18;;;1.67;;
79570;SDS011;69034;49.444;7.758;2023-04-15T09:54:58;7.75;;;1.80;;
79570;SDS011;69034;49.444;7.758;2023-04-15T09:58:58;9.85;;;2.35;;
79570;SDS011;69034;49.444;7.758;2023-04-15T10:02:58;4.88;;;1.50;;
79570;SDS011;69034;49.444;7.758;2023-04-15T10:06:58;4.32;;;1.40;;
79570;SDS011;69034;49.444;7.758;2023-04-15T10:11:02;4.95;;;1.40;;
79570;SDS011;69034;49.444;7.758;2023-04-15T10:15:04;4.10;;;1.20;;
79570;SDS011;69034;49.444;7.758;2023-04-15T10:19:04;4.95;;;1.45;;
79570;SDS011;69034;49.444;7.758;2023-04-15T10:23:06;5.15;;;1.65;;
79570;SDS011;69034;49.444;7.758;2023-04-15T10:27:07;5.00;;;1.60;;
79570;SDS011;69034;49.444;7.758;2023-04-15T10:31:08;6.25;;;1.67;;
79570;SDS011;69034;49.444;7.758;2023-04-15T10:35:11;4.47;;;1.60;;
79570;SDS011;69034;49.444;7.758;2023-04-15T10:43:30;6.07;;;1.83;;
79570;SDS011;69034;49.444;7.758;2023-04-15T10:47:31;10.17;;;2.07;;
79570;SDS011;69034;49.444;7.758;2023-04-15T10:51:31;12.57;;;2.10;;
79570;SDS011;69034;49.444;7.758;2023-04-15T10:55:34;5.50;;;1.50;;
79570;SDS011;69034;49.444;7.758;2023-04-15T10:59:35;5.85;;;1.40;;
79570;SDS011;69034;49.444;7.758;2023-04-15T11:03:36;6.25;;;1.40;;
79570;SDS011;69034;49.444;7.758;2023-04-15T11:07:38;5.22;;;1.40;;
79570;SDS011;69034;49.444;7.758;2023-04-15T11:15:59;6.60;;;2.30;;
79570;SDS011;69034;49.444;7.758;2023-04-15T11:20:00;3.92;;;1.52;;
79570;SDS011;69034;49.444;7.758;2023-04-15T11:24:00;4.33;;;1.30;;
79570;SDS011;69034;49.444;7.758;2023-04-15T11:28:01;7.43;;;1.50;;
79570;SDS011;69034;49.444;7.758;2023-04-15T11:32:05;8.25;;;2.08;;
79570;SDS011;69034;49.444;7.758;2023-04-15T11:36:06;5.43;;;1.58;;
79570;SDS011;69034;49.444;7.758;2023-04-15T11:40:07;6.88;;;1.50;;
79570;SDS011;69034;49.444;7.758;2023-04-15T11:44:17;5.88;;;1.52;;
79570;SDS011;69034;49.444;7.758;2023-04-15T11:48:17;6.72;;;1.80;;
79570;SDS011;69034;49.444;7.758;2023-04-15T11:52:18;5.63;;;1.63;;
79570;SDS011;69034;49.444;7.758;2023-04-15T11:56:22;6.32;;;2.00;;
79570;SDS011;69034;49.444;7.758;2023-04-15T12:00:23;4.50;;;1.67;;
79570;SDS011;69034;49.444;7.758;2023-04-15T12:04:23;10.35;;;2.15;;
79570;SDS011;69034;49.444;7.758;2023-04-15T12:08:23;6.20;;;1.80;;
79570;SDS011;69034;49.444;7.758;2023-04-15T12:12:27;6.43;;;2.05;;
79570;SDS011;69034;49.444;7.758;2023-04-15T12:16:30;5.88;;;1.80;;
79570;SDS011;69034;49.444;7.758;2023-04-15T12:20:30;5.35;;;1.70;;
79570;SDS011;69034;49.444;7.758;2023-04-15T12:24:34;5.30;;;1.83;;
79570;SDS011;69034;49.444;7.758;2023-04-15T12:28:35;6.00;;;1.88;;
79570;SDS011;69034;49.444;7.758;2023-04-15T12:32:36;4.82;;;1.70;;
79570;SDS011;69034;49.444;7.758;2023-04-15T12:36:36;5.05;;;2.03;;
79570;SDS011;69034;49.444;7.758;2023-04-15T12:40:36;6.25;;;2.20;;
79570;SDS011;69034;49.444;7.758;2023-04-15T12:44:37;7.10;;;2.03;;
79570;SDS011;69034;49.444;7.758;2023-04-15T12:48:37;5.72;;;1.70;;
79570;SDS011;69034;49.444;7.758;2023-04-15T12:52:37;5.00;;;1.95;;
79570;SDS011;69034;49.444;7.758;2023-04-15T12:56:38;4.55;;;1.73;;
79570;SDS011;69034;49.444;7.758;2023-04-15T13:00:38;6.03;;;1.83;;
79570;SDS011;69034;49.444;7.758;2023-04-15T13:04:38;6.25;;;2.00;;
79570;SDS011;69034;49.444;7.758;2023-04-15T13:08:39;4.88;;;1.98;;
79570;SDS011;69034;49.444;7.758;2023-04-15T13:12:39;5.67;;;1.53;;
79570;SDS011;69034;49.444;7.758;2023-04-15T13:16:40;6.22;;;1.90;;
79570;SDS011;69034;49.444;7.758;2023-04-15T13:20:40;6.22;;;2.63;;
79570;SDS011;69034;49.444;7.758;2023-04-15T13:24:41;5.50;;;2.45;;
79570;SDS011;69034;49.444;7.758;2023-04-15T13:28:41;4.50;;;1.50;;
79570;SDS011;69034;49.444;7.758;2023-04-15T13:32:41;6.07;;;1.92;;
79570;SDS011;69034;49.444;7.758;2023-04-15T13:36:41;7.88;;;1.70;;
79570;SDS011;69034;49.444;7.758;2023-04-15T13:40:42;6.10;;;1.90;;
79570;SDS011;69034;49.444;7.758;2023-04-15T13:44:42;9.52;;;1.80;;
79570;SDS011;69034;49.444;7.758;2023-04-15T13:48:42;4.03;;;1.70;;
79570;SDS011;69034;49.444;7.758;2023-04-15T13:52:43;4.43;;;1.87;;
79570;SDS011;69034;49.444;7.758;2023-04-15T13:56:43;4.10;;;1.33;;
79570;SDS011;69034;49.444;7.758;2023-04-15T14:00:43;4.93;;;1.63;;
79570;SDS011;69034;49.444;7.758;2023-04-15T14:04:43;5.63;;;1.48;;
79570;SDS011;69034;49.444;7.758;2023-04-15T14:08:43;4.22;;;1.60;;
79570;SDS011;69034;49.444;7.758;2023-04-15T14:12:44;5.27;;;1.43;;
79570;SDS011;69034;49.444;7.758;2023-04-15T14:16:44;3.47;;;1.17;;
79570;SDS011;69034;49.444;7.758;2023-04-15T14:20:45;4.63;;;1.57;;
79570;SDS011;69034;49.444;7.758;2023-04-15T14:24:45;5.63;;;1.60;;
79570;SDS011;69034;49.444;7.758;2023-04-15T14:28:47;2.95;;;1.10;;
79570;SDS011;69034;49.444;7.758;2023-04-15T14:32:47;3.63;;;1.17;;
79570;SDS011;69034;49.444;7.758;2023-04-15T14:36:48;2.88;;;1.15;;
79570;SDS011;69034;49.444;7.758;2023-04-15T14:40:48;4.90;;;1.00;;
79570;SDS011;69034;49.444;7.758;2023-04-15T14:48:54;2.67;;;1.00;;
79570;SDS011;69034;49.444;7.758;2023-04-15T14:52:54;3.90;;;1.00;;
79570;SDS011;69034;49.444;7.758;2023-04-15T14:56:55;2.90;;;0.93;;
79570;SDS011;69034;49.444;7.758;2023-04-15T15:00:55;2.43;;;0.80;;
79570;SDS011;69034;49.444;7.758;2023-04-15T15:04:56;7.27;;;1.00;;
79570;SDS011;69034;49.444;7.758;2023-04-15T15:08:56;4.57;;;0.93;;
79570;SDS011;69034;49.444;7.758;2023-04-15T15:12:57;4.20;;;0.93;;
79570;SDS011;69034;49.444;7.758;2023-04-15T15:16:57;5.32;;;1.55;;
79570;SDS011;69034;49.444;7.758;2023-04-15T15:20:57;7.90;;;1.40;;
79570;SDS011;69034;49.444;7.758;2023-04-15T15:24:57;3.83;;;1.10;;
79570;SDS011;69034;49.444;7.758;2023-04-15T15:28:58;6.00;;;1.02;;
79570;SDS011;69034;49.444;7.758;2023-04-15T15:33:02;2.85;;;1.10;;
79570;SDS011;69034;49.444;7.758;2023-04-15T15:37:02;3.25;;;1.08;;
79570;SDS011;69034;49.444;7.758;2023-04-15T15:41:03;3.40;;;1.40;;
79570;SDS011;69034;49.444;7.758;2023-04-15T15:45:03;4.45;;;1.40;;
79570;SDS011;69034;49.444;7.758;2023-04-15T15:49:04;2.40;;;1.00;;
79570;SDS011;69034;49.444;7.758;2023-04-15T15:53:04;3.13;;;0.90;;
79570;SDS011;69034;49.444;7.758;2023-04-15T15:57:04;2.75;;;0.90;;
79570;SDS011;69034;49.444;7.758;2023-04-15T16:01:05;2.58;;;0.90;;
79570;SDS011;69034;49.444;7.758;2023-04-15T16:05:05;2.60;;;1.05;;
79570;SDS011;69034;49.444;7.758;2023-04-15T16:09:05;2.80;;;1.00;;
79570;SDS011;69034;49.444;7.758;2023-04-15T16:13:05;2.60;;;1.00;;
79570;SDS011;69034;49.444;7.758;2023-04-15T16:17:06;5.37;;;1.00;;
79570;SDS011;69034;49.444;7.758;2023-04-15T16:21:06;2.63;;;1.00;;
79570;SDS011;69034;49.444;7.758;2023-04-15T16:25:06;2.95;;;1.52;;
79570;SDS011;69034;49.444;7.758;2023-04-15T16:29:06;2.67;;;0.97;;
79570;SDS011;69034;49.444;7.758;2023-04-15T16:33:07;1.93;;;0.70;;
79570;SDS011;69034;49.444;7.758;2023-04-15T16:37:07;2.13;;;0.80;;
79570;SDS011;69034;49.444;7.758;2023-04-15T16:41:07;2.35;;;0.73;;
79570;SDS011;69034;49.444;7.758;2023-04-15T16:45:07;2.55;;;0.93;;
79570;SDS011;69034;49.444;7.758;2023-04-15T16:49:08;2.38;;;0.93;;
79570;SDS011;69034;49.444;7.758;2023-04-15T16:53:08;2.67;;;0.93;;
79570;SDS011;69034;49.444;7.758;2023-04-15T16:57:09;3.53;;;1.17;;
79570;SDS011;69034;49.444;7.758;2023-04-15T17:01:09;3.35;;;1.50;;
79570;SDS011;69034;49.444;7.758;2023-04-15T17:05:09;2.75;;;1.27;;
79570;SDS011;69034;49.444;7.758;2023-04-15T17:09:09;3.53;;;1.20;;
79570;SDS011;69034;49.444;7.758;2023-04-15T17:13:10;3.27;;;1.23;;
79570;SDS011;69034;49.444;7.758;2023-04-15T17:17:10;3.00;;;1.30;;
79570;SDS011;69034;49.444;7.758;2023-04-15T17:21:10;9.25;;;2.58;;
79570;SDS011;69034;49.444;7.758;2023-04-15T17:25:12;10.38;;;2.53;;
79570;SDS011;69034;49.444;7.758;2023-04-15T17:29:12;5.95;;;2.00;;
79570;SDS011;69034;49.444;7.758;2023-04-15T17:33:12;10.47;;;4.00;;
79570;SDS011;69034;49.444;7.758;2023-04-15T17:37:13;8.90;;;4.07;;
79570;SDS011;69034;49.444;7.758;2023-04-15T17:41:13;13.40;;;5.33;;
79570;SDS011;69034;49.444;7.758;2023-04-15T17:45:13;11.73;;;5.33;;
79570;SDS011;69034;49.444;7.758;2023-04-15T17:49:13;10.00;;;4.77;;
79570;SDS011;69034;49.444;7.758;2023-04-15T17:53:14;12.20;;;5.30;;
79570;SDS011;69034;49.444;7.758;2023-04-15T17:57:14;13.73;;;6.30;;
79570;SDS011;69034;49.444;7.758;2023-04-15T18:01:14;19.00;;;6.30;;
79570;SDS011;69034;49.444;7.758;2023-04-15T18:05:15;17.63;;;7.05;;
79570;SDS011;69034;49.444;7.758;2023-04-15T18:09:15;20.53;;;7.50;;
79570;SDS011;69034;49.444;7.758;2023-04-15T18:13:15;21.25;;;8.50;;
79570;SDS011;69034;49.444;7.758;2023-04-15T18:17:15;27.87;;;11.60;;
79570;SDS011;69034;49.444;7.758;2023-04-15T18:21:16;26.25;;;11.43;;
79570;SDS011;69034;49.444;7.758;2023-04-15T18:25:16;21.88;;;10.43;;
79570;SDS011;69034;49.444;7.758;2023-04-15T18:29:16;18.05;;;9.05;;
79570;SDS011;69034;49.444;7.758;2023-04-15T18:33:17;15.27;;;8.10;;
79570;SDS011;69034;49.444;7.758;2023-04-15T18:37:17;16.40;;;8.17;;
79570;SDS011;69034;49.444;7.758;2023-04-15T18:41:18;13.02;;;6.85;;
79570;SDS011;69034;49.444;7.758;2023-04-15T18:45:18;9.80;;;6.33;;
79570;SDS011;69034;49.444;7.758;2023-04-15T18:49:18;11.85;;;6.00;;
79570;SDS011;69034;49.444;7.758;2023-04-15T18:53:19;9.65;;;5.43;;
79570;SDS011;69034;49.444;7.758;2023-04-15T18:57:19;8.48;;;4.97;;
79570;SDS011;69034;49.444;7.758;2023-04-15T19:01:20;8.30;;;4.83;;
79570;SDS011;69034;49.444;7.758;2023-04-15T19:05:20;7.80;;;4.97;;
79570;SDS011;69034;49.444;7.758;2023-04-15T19:09:20;7.72;;;4.72;;
79570;SDS011;69034;49.444;7.758;2023-04-15T19:13:20;7.63;;;4.90;;
79570;SDS011;69034;49.444;7.758;2023-04-15T19:17:21;7.80;;;5.45;;
79570;SDS011;69034;49.444;7.758;2023-04-15T19:21:21;7.73;;;5.60;;
79570;SDS011;69034;49.444;7.758;2023-04-15T19:25:22;8.40;;;5.63;;
79570;SDS011;69034;49.444;7.758;2023-04-15T19:29:23;7.30;;;5.35;;
79570;SDS011;69034;49.444;7.758;2023-04-15T19:33:23;7.30;;;5.07;;
79570;SDS011;69034;49.444;7.758;2023-04-15T19:37:26;8.18;;;5.50;;
79570;SDS011;69034;49.444;7.758;2023-04-15T19:41:26;6.60;;;4.85;;
79570;SDS011;69034;49.444;7.758;2023-04-15T19:45:26;10.03;;;5.57;;
79570;SDS011;69034;49.444;7.758;2023-04-15T19:49:27;8.18;;;4.97;;
79570;SDS011;69034;49.444;7.758;2023-04-15T19:53:27;6.83;;;5.23;;
79570;SDS011;69034;49.444;7.758;2023-04-15T19:57:28;9.13;;;5.15;;
79570;SDS011;69034;49.444;7.758;2023-04-15T20:01:28;8.02;;;5.55;;
79570;SDS011;69034;49.444;7.758;2023-04-15T20:05:28;11.67;;;5.77;;
79570;SDS011;69034;49.444;7.758;2023-04-15T20:09:28;8.13;;;5.33;;
79570;SDS011;69034;49.444;7.758;2023-04-15T20:13:29;6.85;;;5.53;;
79570;SDS011;69034;49.444;7.758;2023-04-15T20:17:31;10.47;;;5.73;;
79570;SDS011;69034;49.444;7.758;2023-04-15T20:21:31;8.75;;;5.53;;
79570;SDS011;69034;49.444;7.758;2023-04-15T20:25:31;9.13;;;5.80;;
79570;SDS011;69034;49.444;7.758;2023-04-15T20:29:32;9.98;;;6.03;;
79570;SDS011;69034;49.444;7.758;2023-04-15T20:33:32;8.13;;;5.67;;
79570;SDS011;69034;49.444;7.758;2023-04-15T20:37:32;10.80;;;6.00;;
79570;SDS011;69034;49.444;7.758;2023-04-15T20:41:32;8.70;;;5.90;;
79570;SDS011;69034;49.444;7.758;2023-04-15T20:45:33;10.48;;;5.88;;
79570;SDS011;69034;49.444;7.758;2023-04-15T20:49:33;8.23;;;5.40;;
79570;SDS011;69034;49.444;7.758;2023-04-15T20:53:34;10.15;;;5.88;;
79570;SDS011;69034;49.444;7.758;2023-04-15T20:57:34;8.87;;;6.03;;
79570;SDS011;69034;49.444;7.758;2023-04-15T21:01:34;9.23;;;5.95;;
79570;SDS011;69034;49.444;7.758;2023-04-15T21:05:34;10.90;;;5.72;;
79570;SDS011;69034;49.444;7.758;2023-04-15T21:09:35;9.17;;;5.47;;
79570;SDS011;69034;49.444;7.758;2023-04-15T21:13:37;8.52;;;5.63;;
79570;SDS011;69034;49.444;7.758;2023-04-15T21:17:37;7.97;;;5.40;;
79570;SDS011;69034;49.444;7.758;2023-04-15T21:21:38;11.68;;;5.60;;
79570;SDS011;69034;49.444;7.758;2023-04-15T21:25:38;7.75;;;5.20;;
79570;SDS011;69034;49.444;7.758;2023-04-15T21:29:38;7.25;;;5.07;;
79570;SDS011;69034;49.444;7.758;2023-04-15T21:33:39;8.38;;;5.13;;
79570;SDS011;69034;49.444;7.758;2023-04-15T21:37:39;7.22;;;4.60;;
79570;SDS011;69034;49.444;7.758;2023-04-15T21:41:39;8.23;;;4.13;;
79570;SDS011;69034;49.444;7.758;2023-04-15T21:45:39;6.97;;;4.53;;
79570;SDS011;69034;49.444;7.758;2023-04-15T21:49:42;7.47;;;4.05;;
79570;SDS011;69034;49.444;7.758;2023-04-15T21:53:42;8.10;;;4.03;;
79570;SDS011;69034;49.444;7.758;2023-04-15T21:57:43;6.03;;;4.00;;
79570;SDS011;69034;49.444;7.758;2023-04-15T22:01:43;8.13;;;4.45;;
79570;SDS011;69034;49.444;7.758;2023-04-15T22:05:44;7.13;;;4.50;;
79570;SDS011;69034;49.444;7.758;2023-04-15T22:09:44;7.68;;;4.80;;
79570;SDS011;69034;49.444;7.758;2023-04-15T22:13:45;7.72;;;5.07;;
79570;SDS011;69034;49.444;7.758;2023-04-15T22:17:45;7.10;;;4.80;;
79570;SDS011;69034;49.444;7.758;2023-04-15T22:21:46;7.47;;;4.50;;
79570;SDS011;69034;49.444;7.758;2023-04-15T22:25:46;7.88;;;4.70;;
79570;SDS011;69034;49.444;7.758;2023-04-15T22:29:46;7.10;;;4.73;;
79570;SDS011;69034;49.444;7.758;2023-04-15T22:33:46;7.00;;;4.37;;
79570;SDS011;69034;49.444;7.758;2023-04-15T22:37:51;7.00;;;4.78;;
79570;SDS011;69034;49.444;7.758;2023-04-15T22:41:51;7.35;;;4.43;;
79570;SDS011;69034;49.444;7.758;2023-04-15T22:45:51;7.73;;;4.60;;
79570;SDS011;69034;49.444;7.758;2023-04-15T22:49:53;6.20;;;4.10;;
79570;SDS011;69034;49.444;7.758;2023-04-15T22:53:54;6.90;;;4.60;;
79570;SDS011;69034;49.444;7.758;2023-04-15T22:57:55;6.85;;;3.85;;
79570;SDS011;69034;49.444;7.758;2023-04-15T23:01:56;6.53;;;3.70;;
79570;SDS011;69034;49.444;7.758;2023-04-15T23:05:58;7.38;;;3.97;;
79570;SDS011;69034;49.444;7.758;2023-04-15T23:09:58;5.70;;;3.67;;
79570;SDS011;69034;49.444;7.758;2023-04-15T23:14:00;6.65;;;3.45;;
79570;SDS011;69034;49.444;7.758;2023-04-15T23:18:00;6.35;;;3.58;;
79570;SDS011;69034;49.444;7.758;2023-04-15T23:22:01;5.93;;;3.22;;
79570;SDS011;69034;49.444;7.758;2023-04-15T23:26:01;6.63;;;3.85;;
79570;SDS011;69034;49.444;7.758;2023-04-15T23:30:03;6.57;;;3.92;;
79570;SDS011;69034;49.444;7.758;2023-04-15T23:34:03;5.70;;;3.05;;
79570;SDS011;69034;49.444;7.758;2023-04-15T23:38:03;5.45;;;2.75;;
79570;SDS011;69034;49.444;7.758;2023-04-15T23:42:03;6.45;;;3.20;;
79570;SDS011;69034;49.444;7.758;2023-04-15T23:46:04;6.30;;;3.20;;
79570;SDS011;69034;49.444;7.758;2023-04-15T23:50:05;6.60;;;3.25;;
79570;SDS011;69034;49.444;7.758;2023-04-15T23:54:05;6.70;;;2.92;;
79570;SDS011;69034;49.444;7.758;2023-04-15T23:58:06;5.78;;;2.85;;
